sensor_id;sensor_type;location;lat;lon;timestamp;P1;durP1;ratioP1;P2;durP2;ratioP2
80295;SDS011;74188;42.148;24.762;2023-11-22T00:00:13;30.35;;;16.85;;
80295;SDS011;74188;42.148;24.762;2023-11-22T00:02:39;28.48;;;15.88;;
80295;SDS011;74188;42.148;24.762;2023-11-22T00:05:05;28.17;;;15.32;;
80295;SDS011;74188;42.148;24.762;2023-11-22T00:07:34;25.58;;;15.40;;
80295;SDS011;74188;42.148;24.762;2023-11-22T00:10:00;26.42;;;15.35;;
80295;SDS011;74188;42.148;24.762;2023-11-22T00:12:26;26.17;;;15.38;;
80295;SDS011;74188;42.148;24.762;2023-11-22T00:14:53;26.73;;;15.80;;
80295;SDS011;74188;42.148;24.762;2023-11-22T00:17:19;26.67;;;15.77;;
80295;SDS011;74188;42.148;24.762;2023-11-22T00:19:44;27.35;;;15.82;;
80295;SDS011;74188;42.148;24.762;2023-11-22T00:22:10;25.23;;;15.57;;
80295;SDS011;74188;42.148;24.762;2023-11-22T00:24:41;29.15;;;16.10;;
80295;SDS011;74188;42.148;24.762;2023-11-22T00:27:07;25.65;;;15.77;;
80295;SDS011;74188;42.148;24.762;2023-11-22T00:29:33;23.55;;;15.63;;
80295;SDS011;74188;42.148;24.762;2023-11-22T00:31:59;31.92;;;16.70;;
80295;SDS011;74188;42.148;24.762;2023-11-22T00:34:25;27.20;;;15.77;;
80295;SDS011;74188;42.148;24.762;2023-11-22T00:36:51;28.48;;;16.70;;
80295;SDS011;74188;42.148;24.762;2023-11-22T00:39:17;29.02;;;16.52;;
80295;SDS011;74188;42.148;24.762;2023-11-22T00:41:43;28.70;;;15.80;;
80295;SDS011;74188;42.148;24.762;2023-11-22T00:44:11;30.20;;;15.30;;
80295;SDS011;74188;42.148;24.762;2023-11-22T00:46:37;26.05;;;16.02;;
80295;SDS011;74188;42.148;24.762;2023-11-22T00:49:03;28.80;;;16.20;;
80295;SDS011;74188;42.148;24.762;2023-11-22T00:51:33;25.75;;;15.75;;
80295;SDS011;74188;42.148;24.762;2023-11-22T00:53:59;30.23;;;16.58;;
80295;SDS011;74188;42.148;24.762;2023-11-22T00:56:25;33.53;;;16.42;;
80295;SDS011;74188;42.148;24.762;2023-11-22T00:58:52;28.98;;;16.70;;
80295;SDS011;74188;42.148;24.762;2023-11-22T01:01:18;26.02;;;16.27;;
80295;SDS011;74188;42.148;24.762;2023-11-22T01:03:44;25.73;;;15.90;;
80295;SDS011;74188;42.148;24.762;2023-11-22T01:06:10;25.02;;;15.68;;
80295;SDS011;74188;42.148;24.762;2023-11-22T01:08:35;24.77;;;15.57;;
80295;SDS011;74188;42.148;24.762;2023-11-22T01:11:02;29.17;;;15.52;;
80295;SDS011;74188;42.148;24.762;2023-11-22T01:13:28;23.58;;;15.25;;
80295;SDS011;74188;42.148;24.762;2023-11-22T01:15:54;26.65;;;15.73;;
80295;SDS011;74188;42.148;24.762;2023-11-22T01:18:20;22.98;;;15.55;;
80295;SDS011;74188;42.148;24.762;2023-11-22T01:20:46;24.33;;;14.95;;
80295;SDS011;74188;42.148;24.762;2023-11-22T01:23:12;25.40;;;14.93;;
80295;SDS011;74188;42.148;24.762;2023-11-22T01:25:37;25.73;;;15.27;;
80295;SDS011;74188;42.148;24.762;2023-11-22T01:28:03;26.42;;;15.27;;
80295;SDS011;74188;42.148;24.762;2023-11-22T01:30:29;24.63;;;14.38;;
80295;SDS011;74188;42.148;24.762;2023-11-22T01:32:54;22.02;;;14.70;;
80295;SDS011;74188;42.148;24.762;2023-11-22T01:35:20;23.33;;;14.68;;
80295;SDS011;74188;42.148;24.762;2023-11-22T01:37:46;26.23;;;14.98;;
80295;SDS011;74188;42.148;24.762;2023-11-22T01:40:12;29.55;;;15.52;;
80295;SDS011;74188;42.148;24.762;2023-11-22T01:42:38;25.17;;;15.38;;
80295;SDS011;74188;42.148;24.762;2023-11-22T01:45:07;23.45;;;14.77;;
80295;SDS011;74188;42.148;24.762;2023-11-22T01:47:34;22.90;;;14.55;;
80295;SDS011;74188;42.148;24.762;2023-11-22T01:50:01;26.38;;;15.02;;
80295;SDS011;74188;42.148;24.762;2023-11-22T01:52:30;24.70;;;14.43;;
80295;SDS011;74188;42.148;24.762;2023-11-22T01:54:56;24.20;;;13.95;;
80295;SDS011;74188;42.148;24.762;2023-11-22T01:57:22;26.40;;;14.73;;
80295;SDS011;74188;42.148;24.762;2023-11-22T01:59:48;25.42;;;14.57;;
80295;SDS011;74188;42.148;24.762;2023-11-22T02:02:14;27.65;;;15.40;;
80295;SDS011;74188;42.148;24.762;2023-11-22T02:04:39;27.00;;;14.38;;
80295;SDS011;74188;42.148;24.762;2023-11-22T02:07:05;24.75;;;14.90;;
80295;SDS011;74188;42.148;24.762;2023-11-22T02:09:31;25.20;;;14.85;;
80295;SDS011;74188;42.148;24.762;2023-11-22T02:11:57;25.98;;;15.15;;
80295;SDS011;74188;42.148;24.762;2023-11-22T02:14:22;23.52;;;14.50;;
80295;SDS011;74188;42.148;24.762;2023-11-22T02:16:48;24.17;;;15.00;;
80295;SDS011;74188;42.148;24.762;2023-11-22T02:19:15;24.48;;;14.95;;
80295;SDS011;74188;42.148;24.762;2023-11-22T02:21:42;24.75;;;15.52;;
80295;SDS011;74188;42.148;24.762;2023-11-22T02:24:08;25.20;;;15.82;;
80295;SDS011;74188;42.148;24.762;2023-11-22T02:26:35;25.70;;;15.80;;
80295;SDS011;74188;42.148;24.762;2023-11-22T02:29:01;26.08;;;16.02;;
80295;SDS011;74188;42.148;24.762;2023-11-22T02:31:29;24.20;;;15.52;;
80295;SDS011;74188;42.148;24.762;2023-11-22T02:33:55;30.80;;;16.75;;
80295;SDS011;74188;42.148;24.762;2023-11-22T02:36:21;26.20;;;15.95;;
80295;SDS011;74188;42.148;24.762;2023-11-22T02:38:47;25.85;;;16.17;;
80295;SDS011;74188;42.148;24.762;2023-11-22T02:41:13;31.05;;;16.20;;
80295;SDS011;74188;42.148;24.762;2023-11-22T02:43:39;24.88;;;15.88;;
80295;SDS011;74188;42.148;24.762;2023-11-22T02:46:06;26.38;;;15.35;;
80295;SDS011;74188;42.148;24.762;2023-11-22T02:48:33;24.98;;;16.20;;
80295;SDS011;74188;42.148;24.762;2023-11-22T02:50:59;27.35;;;16.05;;
80295;SDS011;74188;42.148;24.762;2023-11-22T02:53:25;26.52;;;15.77;;
80295;SDS011;74188;42.148;24.762;2023-11-22T02:55:52;25.58;;;15.68;;
80295;SDS011;74188;42.148;24.762;2023-11-22T02:58:20;26.80;;;15.85;;
80295;SDS011;74188;42.148;24.762;2023-11-22T03:00:46;25.90;;;15.80;;
80295;SDS011;74188;42.148;24.762;2023-11-22T03:03:13;26.13;;;15.27;;
80295;SDS011;74188;42.148;24.762;2023-11-22T03:05:38;23.13;;;14.75;;
80295;SDS011;74188;42.148;24.762;2023-11-22T03:08:07;23.10;;;15.00;;
80295;SDS011;74188;42.148;24.762;2023-11-22T03:10:35;23.17;;;15.05;;
80295;SDS011;74188;42.148;24.762;2023-11-22T03:13:01;25.90;;;15.45;;
80295;SDS011;74188;42.148;24.762;2023-11-22T03:15:27;25.92;;;15.73;;
80295;SDS011;74188;42.148;24.762;2023-11-22T03:17:52;25.58;;;15.35;;
80295;SDS011;74188;42.148;24.762;2023-11-22T03:20:19;27.67;;;16.02;;
80295;SDS011;74188;42.148;24.762;2023-11-22T03:22:45;23.83;;;14.65;;
80295;SDS011;74188;42.148;24.762;2023-11-22T03:25:10;26.55;;;15.50;;
80295;SDS011;74188;42.148;24.762;2023-11-22T03:27:37;25.30;;;14.93;;
80295;SDS011;74188;42.148;24.762;2023-11-22T03:30:03;25.65;;;15.18;;
80295;SDS011;74188;42.148;24.762;2023-11-22T03:32:30;26.98;;;15.27;;
80295;SDS011;74188;42.148;24.762;2023-11-22T03:34:55;22.52;;;14.65;;
80295;SDS011;74188;42.148;24.762;2023-11-22T03:37:22;26.40;;;14.45;;
80295;SDS011;74188;42.148;24.762;2023-11-22T03:39:48;25.25;;;15.50;;
80295;SDS011;74188;42.148;24.762;2023-11-22T03:42:14;26.30;;;15.77;;
80295;SDS011;74188;42.148;24.762;2023-11-22T03:44:43;25.35;;;15.63;;
80295;SDS011;74188;42.148;24.762;2023-11-22T03:47:10;30.65;;;16.88;;
80295;SDS011;74188;42.148;24.762;2023-11-22T03:49:39;26.80;;;15.77;;
80295;SDS011;74188;42.148;24.762;2023-11-22T03:52:05;25.35;;;16.65;;
80295;SDS011;74188;42.148;24.762;2023-11-22T03:54:31;29.00;;;15.70;;
80295;SDS011;74188;42.148;24.762;2023-11-22T03:56:57;28.27;;;15.60;;
80295;SDS011;74188;42.148;24.762;2023-11-22T03:59:23;25.33;;;15.65;;
80295;SDS011;74188;42.148;24.762;2023-11-22T04:01:49;25.40;;;15.13;;
80295;SDS011;74188;42.148;24.762;2023-11-22T04:04:16;30.75;;;15.90;;
80295;SDS011;74188;42.148;24.762;2023-11-22T04:06:41;28.77;;;15.60;;
80295;SDS011;74188;42.148;24.762;2023-11-22T04:09:07;27.80;;;15.90;;
80295;SDS011;74188;42.148;24.762;2023-11-22T04:11:33;29.10;;;16.10;;
80295;SDS011;74188;42.148;24.762;2023-11-22T04:13:59;28.08;;;15.55;;
80295;SDS011;74188;42.148;24.762;2023-11-22T04:16:25;26.83;;;14.85;;
80295;SDS011;74188;42.148;24.762;2023-11-22T04:18:51;28.42;;;16.13;;
80295;SDS011;74188;42.148;24.762;2023-11-22T04:21:17;24.90;;;14.82;;
80295;SDS011;74188;42.148;24.762;2023-11-22T04:23:42;27.42;;;16.13;;
80295;SDS011;74188;42.148;24.762;2023-11-22T04:26:08;28.35;;;15.07;;
80295;SDS011;74188;42.148;24.762;2023-11-22T04:28:33;28.38;;;16.00;;
80295;SDS011;74188;42.148;24.762;2023-11-22T04:30:59;27.08;;;16.50;;
80295;SDS011;74188;42.148;24.762;2023-11-22T04:33:25;32.42;;;17.30;;
80295;SDS011;74188;42.148;24.762;2023-11-22T04:38:19;26.10;;;16.25;;
80295;SDS011;74188;42.148;24.762;2023-11-22T04:40:45;27.73;;;15.95;;
80295;SDS011;74188;42.148;24.762;2023-11-22T04:43:11;25.67;;;15.73;;
80295;SDS011;74188;42.148;24.762;2023-11-22T04:45:37;26.58;;;16.48;;
80295;SDS011;74188;42.148;24.762;2023-11-22T04:48:03;24.73;;;16.13;;
80295;SDS011;74188;42.148;24.762;2023-11-22T04:50:29;30.00;;;15.63;;
80295;SDS011;74188;42.148;24.762;2023-11-22T04:52:55;28.10;;;17.25;;
80295;SDS011;74188;42.148;24.762;2023-11-22T04:55:20;27.23;;;16.45;;
80295;SDS011;74188;42.148;24.762;2023-11-22T04:57:48;25.90;;;15.43;;
80295;SDS011;74188;42.148;24.762;2023-11-22T05:00:18;27.73;;;16.48;;
80295;SDS011;74188;42.148;24.762;2023-11-22T05:02:43;26.92;;;16.98;;
80295;SDS011;74188;42.148;24.762;2023-11-22T05:05:09;28.90;;;15.73;;
80295;SDS011;74188;42.148;24.762;2023-11-22T05:07:37;24.30;;;14.60;;
80295;SDS011;74188;42.148;24.762;2023-11-22T05:10:04;23.48;;;14.48;;
80295;SDS011;74188;42.148;24.762;2023-11-22T05:12:30;24.02;;;14.68;;
80295;SDS011;74188;42.148;24.762;2023-11-22T05:14:56;23.55;;;13.93;;
80295;SDS011;74188;42.148;24.762;2023-11-22T05:17:22;22.45;;;13.38;;
80295;SDS011;74188;42.148;24.762;2023-11-22T05:19:48;22.92;;;13.70;;
80295;SDS011;74188;42.148;24.762;2023-11-22T05:24:42;23.95;;;12.95;;
80295;SDS011;74188;42.148;24.762;2023-11-22T05:27:08;22.92;;;13.95;;
80295;SDS011;74188;42.148;24.762;2023-11-22T05:29:34;24.52;;;13.18;;
80295;SDS011;74188;42.148;24.762;2023-11-22T05:32:00;27.27;;;14.05;;
80295;SDS011;74188;42.148;24.762;2023-11-22T05:34:27;31.33;;;16.73;;
80295;SDS011;74188;42.148;24.762;2023-11-22T05:36:53;26.23;;;14.55;;
80295;SDS011;74188;42.148;24.762;2023-11-22T05:39:19;22.35;;;14.40;;
80295;SDS011;74188;42.148;24.762;2023-11-22T05:41:47;23.37;;;14.53;;
80295;SDS011;74188;42.148;24.762;2023-11-22T05:44:13;23.17;;;14.80;;
80295;SDS011;74188;42.148;24.762;2023-11-22T05:46:39;24.00;;;14.20;;
80295;SDS011;74188;42.148;24.762;2023-11-22T05:49:05;30.08;;;15.80;;
80295;SDS011;74188;42.148;24.762;2023-11-22T05:51:31;27.92;;;14.80;;
80295;SDS011;74188;42.148;24.762;2023-11-22T05:53:58;24.98;;;14.95;;
80295;SDS011;74188;42.148;24.762;2023-11-22T05:56:24;25.77;;;15.55;;
80295;SDS011;74188;42.148;24.762;2023-11-22T05:58:50;23.92;;;15.20;;
80295;SDS011;74188;42.148;24.762;2023-11-22T06:01:16;26.73;;;16.10;;
80295;SDS011;74188;42.148;24.762;2023-11-22T06:03:41;25.98;;;15.57;;
80295;SDS011;74188;42.148;24.762;2023-11-22T06:06:07;28.52;;;16.38;;
80295;SDS011;74188;42.148;24.762;2023-11-22T06:08:33;22.17;;;14.00;;
80295;SDS011;74188;42.148;24.762;2023-11-22T06:10:58;24.55;;;14.38;;
80295;SDS011;74188;42.148;24.762;2023-11-22T06:13:25;34.05;;;18.13;;
80295;SDS011;74188;42.148;24.762;2023-11-22T06:15:51;24.95;;;14.93;;
80295;SDS011;74188;42.148;24.762;2023-11-22T06:18:17;24.58;;;14.65;;
80295;SDS011;74188;42.148;24.762;2023-11-22T06:20:44;28.75;;;14.75;;
80295;SDS011;74188;42.148;24.762;2023-11-22T06:23:09;30.40;;;17.08;;
80295;SDS011;74188;42.148;24.762;2023-11-22T06:25:35;26.38;;;14.93;;
80295;SDS011;74188;42.148;24.762;2023-11-22T06:28:01;31.77;;;15.30;;
80295;SDS011;74188;42.148;24.762;2023-11-22T06:30:27;32.47;;;15.65;;
80295;SDS011;74188;42.148;24.762;2023-11-22T06:32:55;34.90;;;20.17;;
80295;SDS011;74188;42.148;24.762;2023-11-22T06:35:21;67.78;;;43.50;;
80295;SDS011;74188;42.148;24.762;2023-11-22T06:37:47;27.17;;;14.70;;
80295;SDS011;74188;42.148;24.762;2023-11-22T06:40:13;22.60;;;13.38;;
80295;SDS011;74188;42.148;24.762;2023-11-22T06:42:39;25.55;;;13.40;;
80295;SDS011;74188;42.148;24.762;2023-11-22T06:45:05;23.90;;;14.43;;
80295;SDS011;74188;42.148;24.762;2023-11-22T06:47:35;24.42;;;16.05;;
80295;SDS011;74188;42.148;24.762;2023-11-22T06:50:01;23.02;;;15.75;;
80295;SDS011;74188;42.148;24.762;2023-11-22T06:52:29;27.55;;;14.07;;
80295;SDS011;74188;42.148;24.762;2023-11-22T06:54:54;17.75;;;11.95;;
80295;SDS011;74188;42.148;24.762;2023-11-22T06:57:20;21.70;;;13.93;;
80295;SDS011;74188;42.148;24.762;2023-11-22T06:59:53;20.33;;;12.88;;
80295;SDS011;74188;42.148;24.762;2023-11-22T07:02:19;21.85;;;13.10;;
80295;SDS011;74188;42.148;24.762;2023-11-22T07:04:44;20.65;;;13.38;;
80295;SDS011;74188;42.148;24.762;2023-11-22T07:07:10;23.15;;;13.18;;
80295;SDS011;74188;42.148;24.762;2023-11-22T07:09:36;24.60;;;14.07;;
80295;SDS011;74188;42.148;24.762;2023-11-22T07:12:02;22.30;;;14.32;;
80295;SDS011;74188;42.148;24.762;2023-11-22T07:14:31;23.13;;;13.93;;
80295;SDS011;74188;42.148;24.762;2023-11-22T07:16:57;26.00;;;15.13;;
80295;SDS011;74188;42.148;24.762;2023-11-22T07:19:23;24.58;;;14.75;;
80295;SDS011;74188;42.148;24.762;2023-11-22T07:21:48;24.98;;;14.88;;
80295;SDS011;74188;42.148;24.762;2023-11-22T07:24:14;28.27;;;14.50;;
80295;SDS011;74188;42.148;24.762;2023-11-22T07:26:41;24.15;;;14.23;;
80295;SDS011;74188;42.148;24.762;2023-11-22T07:29:09;28.17;;;15.68;;
80295;SDS011;74188;42.148;24.762;2023-11-22T07:31:38;26.95;;;15.73;;
80295;SDS011;74188;42.148;24.762;2023-11-22T07:34:04;29.10;;;19.17;;
80295;SDS011;74188;42.148;24.762;2023-11-22T07:36:31;33.45;;;17.98;;
80295;SDS011;74188;42.148;24.762;2023-11-22T07:38:57;25.90;;;15.73;;
80295;SDS011;74188;42.148;24.762;2023-11-22T07:41:23;25.42;;;15.52;;
80295;SDS011;74188;42.148;24.762;2023-11-22T07:43:48;27.20;;;16.35;;
80295;SDS011;74188;42.148;24.762;2023-11-22T07:46:14;26.10;;;17.02;;
80295;SDS011;74188;42.148;24.762;2023-11-22T07:48:42;23.83;;;15.57;;
80295;SDS011;74188;42.148;24.762;2023-11-22T07:51:08;27.23;;;16.70;;
80295;SDS011;74188;42.148;24.762;2023-11-22T07:53:34;27.90;;;16.70;;
80295;SDS011;74188;42.148;24.762;2023-11-22T07:56:00;28.15;;;16.95;;
80295;SDS011;74188;42.148;24.762;2023-11-22T07:58:29;30.80;;;16.40;;
80295;SDS011;74188;42.148;24.762;2023-11-22T08:00:56;33.03;;;16.67;;
80295;SDS011;74188;42.148;24.762;2023-11-22T08:03:23;38.33;;;16.88;;
80295;SDS011;74188;42.148;24.762;2023-11-22T08:05:50;33.45;;;17.50;;
80295;SDS011;74188;42.148;24.762;2023-11-22T08:08:19;31.73;;;17.83;;
80295;SDS011;74188;42.148;24.762;2023-11-22T08:10:45;33.60;;;18.63;;
80295;SDS011;74188;42.148;24.762;2023-11-22T08:15:40;33.28;;;19.92;;
80295;SDS011;74188;42.148;24.762;2023-11-22T08:18:05;33.30;;;19.85;;
80295;SDS011;74188;42.148;24.762;2023-11-22T08:20:31;41.30;;;19.98;;
80295;SDS011;74188;42.148;24.762;2023-11-22T08:22:57;30.77;;;19.35;;
80295;SDS011;74188;42.148;24.762;2023-11-22T08:25:22;32.85;;;19.67;;
80295;SDS011;74188;42.148;24.762;2023-11-22T08:27:48;39.28;;;19.55;;
80295;SDS011;74188;42.148;24.762;2023-11-22T08:30:14;33.45;;;20.10;;
80295;SDS011;74188;42.148;24.762;2023-11-22T08:32:47;34.47;;;20.50;;
80295;SDS011;74188;42.148;24.762;2023-11-22T08:35:19;44.22;;;23.23;;
80295;SDS011;74188;42.148;24.762;2023-11-22T08:37:48;41.25;;;22.67;;
80295;SDS011;74188;42.148;24.762;2023-11-22T08:40:16;37.47;;;20.60;;
80295;SDS011;74188;42.148;24.762;2023-11-22T08:42:50;36.00;;;20.48;;
80295;SDS011;74188;42.148;24.762;2023-11-22T08:45:16;42.97;;;22.35;;
80295;SDS011;74188;42.148;24.762;2023-11-22T08:47:42;43.20;;;25.73;;
80295;SDS011;74188;42.148;24.762;2023-11-22T08:50:08;39.47;;;23.00;;
80295;SDS011;74188;42.148;24.762;2023-11-22T08:52:40;37.15;;;22.02;;
80295;SDS011;74188;42.148;24.762;2023-11-22T08:55:06;33.22;;;21.25;;
80295;SDS011;74188;42.148;24.762;2023-11-22T08:57:36;35.55;;;21.80;;
80295;SDS011;74188;42.148;24.762;2023-11-22T09:00:03;40.05;;;21.73;;
80295;SDS011;74188;42.148;24.762;2023-11-22T09:02:33;35.47;;;21.35;;
80295;SDS011;74188;42.148;24.762;2023-11-22T09:05:01;38.13;;;22.70;;
80295;SDS011;74188;42.148;24.762;2023-11-22T09:07:30;35.17;;;22.20;;
80295;SDS011;74188;42.148;24.762;2023-11-22T09:09:56;44.88;;;23.30;;
80295;SDS011;74188;42.148;24.762;2023-11-22T09:12:23;37.88;;;21.92;;
80295;SDS011;74188;42.148;24.762;2023-11-22T09:14:48;38.22;;;21.88;;
80295;SDS011;74188;42.148;24.762;2023-11-22T09:17:14;42.25;;;22.58;;
80295;SDS011;74188;42.148;24.762;2023-11-22T09:19:40;35.28;;;22.33;;
80295;SDS011;74188;42.148;24.762;2023-11-22T09:22:05;37.65;;;22.13;;
80295;SDS011;74188;42.148;24.762;2023-11-22T09:24:32;40.35;;;23.08;;
80295;SDS011;74188;42.148;24.762;2023-11-22T09:26:58;38.40;;;22.15;;
80295;SDS011;74188;42.148;24.762;2023-11-22T09:29:25;37.88;;;22.30;;
80295;SDS011;74188;42.148;24.762;2023-11-22T09:31:51;34.40;;;20.60;;
80295;SDS011;74188;42.148;24.762;2023-11-22T09:34:17;34.20;;;19.73;;
80295;SDS011;74188;42.148;24.762;2023-11-22T09:36:43;31.95;;;19.92;;
80295;SDS011;74188;42.148;24.762;2023-11-22T09:39:09;30.73;;;18.85;;
80295;SDS011;74188;42.148;24.762;2023-11-22T09:41:35;29.08;;;17.48;;
80295;SDS011;74188;42.148;24.762;2023-11-22T09:44:01;29.58;;;17.15;;
80295;SDS011;74188;42.148;24.762;2023-11-22T09:46:27;28.48;;;17.60;;
80295;SDS011;74188;42.148;24.762;2023-11-22T09:48:55;30.90;;;18.08;;
80295;SDS011;74188;42.148;24.762;2023-11-22T09:54:03;28.67;;;17.30;;
80295;SDS011;74188;42.148;24.762;2023-11-22T09:56:32;25.48;;;17.23;;
80295;SDS011;74188;42.148;24.762;2023-11-22T09:59:01;38.65;;;16.77;;
80295;SDS011;74188;42.148;24.762;2023-11-22T10:01:29;28.17;;;16.95;;
80295;SDS011;74188;42.148;24.762;2023-11-22T10:04:01;23.35;;;14.10;;
80295;SDS011;74188;42.148;24.762;2023-11-22T10:06:30;26.88;;;15.05;;
80295;SDS011;74188;42.148;24.762;2023-11-22T10:09:03;25.33;;;15.60;;
80295;SDS011;74188;42.148;24.762;2023-11-22T10:11:34;20.67;;;14.02;;
80295;SDS011;74188;42.148;24.762;2023-11-22T10:16:27;20.30;;;13.43;;
80295;SDS011;74188;42.148;24.762;2023-11-22T10:18:52;23.55;;;13.65;;
80295;SDS011;74188;42.148;24.762;2023-11-22T10:21:22;22.98;;;14.43;;
80295;SDS011;74188;42.148;24.762;2023-11-22T10:23:53;24.73;;;15.40;;
80295;SDS011;74188;42.148;24.762;2023-11-22T10:26:23;26.85;;;15.05;;
80295;SDS011;74188;42.148;24.762;2023-11-22T10:28:53;26.70;;;16.15;;
80295;SDS011;74188;42.148;24.762;2023-11-22T10:31:19;27.38;;;16.77;;
80295;SDS011;74188;42.148;24.762;2023-11-22T10:33:46;26.95;;;17.33;;
80295;SDS011;74188;42.148;24.762;2023-11-22T10:36:13;28.40;;;16.92;;
80295;SDS011;74188;42.148;24.762;2023-11-22T10:38:40;27.08;;;17.20;;
80295;SDS011;74188;42.148;24.762;2023-11-22T10:41:07;25.33;;;16.48;;
80295;SDS011;74188;42.148;24.762;2023-11-22T10:43:37;26.15;;;17.08;;
80295;SDS011;74188;42.148;24.762;2023-11-22T10:46:04;30.92;;;16.25;;
80295;SDS011;74188;42.148;24.762;2023-11-22T10:48:31;25.77;;;16.13;;
80295;SDS011;74188;42.148;24.762;2023-11-22T10:51:00;25.08;;;15.70;;
80295;SDS011;74188;42.148;24.762;2023-11-22T10:53:32;22.05;;;14.70;;
80295;SDS011;74188;42.148;24.762;2023-11-22T10:56:04;23.55;;;14.70;;
80295;SDS011;74188;42.148;24.762;2023-11-22T10:58:46;22.90;;;13.95;;
80295;SDS011;74188;42.148;24.762;2023-11-22T11:01:12;24.73;;;14.13;;
80295;SDS011;74188;42.148;24.762;2023-11-22T11:03:41;21.73;;;13.00;;
80295;SDS011;74188;42.148;24.762;2023-11-22T11:06:20;24.30;;;12.98;;
80295;SDS011;74188;42.148;24.762;2023-11-22T11:08:53;20.48;;;13.10;;
80295;SDS011;74188;42.148;24.762;2023-11-22T11:11:20;24.42;;;13.27;;
80295;SDS011;74188;42.148;24.762;2023-11-22T11:13:47;23.80;;;12.68;;
80295;SDS011;74188;42.148;24.762;2023-11-22T11:16:14;17.75;;;11.60;;
80295;SDS011;74188;42.148;24.762;2023-11-22T11:18:41;21.38;;;11.80;;
80295;SDS011;74188;42.148;24.762;2023-11-22T11:21:07;19.17;;;12.25;;
80295;SDS011;74188;42.148;24.762;2023-11-22T11:23:37;21.95;;;12.75;;
80295;SDS011;74188;42.148;24.762;2023-11-22T11:26:09;20.42;;;13.43;;
80295;SDS011;74188;42.148;24.762;2023-11-22T11:28:44;19.90;;;12.85;;
80295;SDS011;74188;42.148;24.762;2023-11-22T11:31:14;21.13;;;13.45;;
80295;SDS011;74188;42.148;24.762;2023-11-22T11:36:29;19.45;;;12.48;;
80295;SDS011;74188;42.148;24.762;2023-11-22T11:39:02;21.27;;;13.00;;
80295;SDS011;74188;42.148;24.762;2023-11-22T11:41:34;22.38;;;12.43;;
80295;SDS011;74188;42.148;24.762;2023-11-22T11:44:07;21.98;;;12.35;;
80295;SDS011;74188;42.148;24.762;2023-11-22T11:46:34;21.15;;;12.30;;
80295;SDS011;74188;42.148;24.762;2023-11-22T11:49:03;20.35;;;12.20;;
80295;SDS011;74188;42.148;24.762;2023-11-22T11:51:35;24.45;;;12.50;;
80295;SDS011;74188;42.148;24.762;2023-11-22T11:54:02;18.33;;;12.60;;
80295;SDS011;74188;42.148;24.762;2023-11-22T11:56:29;18.73;;;12.02;;
80295;SDS011;74188;42.148;24.762;2023-11-22T11:58:58;19.77;;;12.00;;
80295;SDS011;74188;42.148;24.762;2023-11-22T12:01:24;17.98;;;11.50;;
80295;SDS011;74188;42.148;24.762;2023-11-22T12:03:52;15.88;;;10.82;;
80295;SDS011;74188;42.148;24.762;2023-11-22T12:06:18;20.98;;;11.25;;
80295;SDS011;74188;42.148;24.762;2023-11-22T12:08:44;15.98;;;10.07;;
80295;SDS011;74188;42.148;24.762;2023-11-22T12:11:12;17.10;;;9.98;;
80295;SDS011;74188;42.148;24.762;2023-11-22T12:13:38;16.20;;;9.20;;
80295;SDS011;74188;42.148;24.762;2023-11-22T12:16:08;15.93;;;10.35;;
80295;SDS011;74188;42.148;24.762;2023-11-22T12:18:45;16.02;;;9.48;;
80295;SDS011;74188;42.148;24.762;2023-11-22T12:21:12;19.93;;;10.77;;
80295;SDS011;74188;42.148;24.762;2023-11-22T12:23:42;18.20;;;9.88;;
80295;SDS011;74188;42.148;24.762;2023-11-22T12:26:17;17.67;;;10.70;;
80295;SDS011;74188;42.148;24.762;2023-11-22T12:28:45;14.75;;;9.98;;
80295;SDS011;74188;42.148;24.762;2023-11-22T12:31:13;15.60;;;9.38;;
80295;SDS011;74188;42.148;24.762;2023-11-22T12:33:42;15.57;;;10.17;;
80295;SDS011;74188;42.148;24.762;2023-11-22T12:36:10;17.15;;;10.38;;
80295;SDS011;74188;42.148;24.762;2023-11-22T12:38:41;17.70;;;9.77;;
80295;SDS011;74188;42.148;24.762;2023-11-22T12:41:07;16.42;;;9.75;;
80295;SDS011;74188;42.148;24.762;2023-11-22T12:43:33;14.68;;;10.20;;
80295;SDS011;74188;42.148;24.762;2023-11-22T12:46:03;14.60;;;10.55;;
80295;SDS011;74188;42.148;24.762;2023-11-22T12:48:32;15.05;;;9.68;;
80295;SDS011;74188;42.148;24.762;2023-11-22T12:50:59;13.45;;;10.30;;
80295;SDS011;74188;42.148;24.762;2023-11-22T12:53:25;18.88;;;9.80;;
80295;SDS011;74188;42.148;24.762;2023-11-22T12:55:55;18.20;;;10.77;;
80295;SDS011;74188;42.148;24.762;2023-11-22T12:58:22;16.95;;;10.82;;
80295;SDS011;74188;42.148;24.762;2023-11-22T13:00:50;20.63;;;11.27;;
80295;SDS011;74188;42.148;24.762;2023-11-22T13:03:23;19.58;;;10.93;;
80295;SDS011;74188;42.148;24.762;2023-11-22T13:05:49;19.23;;;11.30;;
80295;SDS011;74188;42.148;24.762;2023-11-22T13:08:17;18.33;;;11.40;;
80295;SDS011;74188;42.148;24.762;2023-11-22T13:10:43;22.00;;;11.30;;
80295;SDS011;74188;42.148;24.762;2023-11-22T13:13:18;19.52;;;12.93;;
80295;SDS011;74188;42.148;24.762;2023-11-22T13:15:47;19.17;;;13.07;;
80295;SDS011;74188;42.148;24.762;2023-11-22T13:18:14;17.77;;;11.90;;
80295;SDS011;74188;42.148;24.762;2023-11-22T13:20:41;20.17;;;11.70;;
80295;SDS011;74188;42.148;24.762;2023-11-22T13:23:07;17.58;;;10.65;;
80295;SDS011;74188;42.148;24.762;2023-11-22T13:25:33;20.98;;;11.18;;
80295;SDS011;74188;42.148;24.762;2023-11-22T13:27:59;18.33;;;12.00;;
80295;SDS011;74188;42.148;24.762;2023-11-22T13:30:25;18.55;;;11.45;;
80295;SDS011;74188;42.148;24.762;2023-11-22T13:32:52;20.83;;;12.65;;
80295;SDS011;74188;42.148;24.762;2023-11-22T13:35:21;18.58;;;11.88;;
80295;SDS011;74188;42.148;24.762;2023-11-22T13:37:47;18.23;;;12.02;;
80295;SDS011;74188;42.148;24.762;2023-11-22T13:40:17;19.08;;;11.57;;
80295;SDS011;74188;42.148;24.762;2023-11-22T13:42:47;18.20;;;11.23;;
80295;SDS011;74188;42.148;24.762;2023-11-22T13:45:16;16.58;;;11.77;;
80295;SDS011;74188;42.148;24.762;2023-11-22T13:47:45;22.55;;;12.45;;
80295;SDS011;74188;42.148;24.762;2023-11-22T13:50:15;20.58;;;13.15;;
80295;SDS011;74188;42.148;24.762;2023-11-22T13:52:47;17.75;;;11.82;;
80295;SDS011;74188;42.148;24.762;2023-11-22T13:55:13;17.48;;;12.10;;
80295;SDS011;74188;42.148;24.762;2023-11-22T13:57:41;20.60;;;12.63;;
80295;SDS011;74188;42.148;24.762;2023-11-22T14:00:07;19.73;;;13.30;;
80295;SDS011;74188;42.148;24.762;2023-11-22T14:02:37;19.20;;;12.98;;
80295;SDS011;74188;42.148;24.762;2023-11-22T14:05:02;21.42;;;12.57;;
80295;SDS011;74188;42.148;24.762;2023-11-22T14:07:32;23.40;;;14.40;;
80295;SDS011;74188;42.148;24.762;2023-11-22T14:09:59;21.77;;;14.45;;
80295;SDS011;74188;42.148;24.762;2023-11-22T14:12:25;22.35;;;14.55;;
80295;SDS011;74188;42.148;24.762;2023-11-22T14:14:50;21.42;;;14.60;;
80295;SDS011;74188;42.148;24.762;2023-11-22T14:17:16;20.25;;;13.65;;
80295;SDS011;74188;42.148;24.762;2023-11-22T14:19:45;23.20;;;14.82;;
80295;SDS011;74188;42.148;24.762;2023-11-22T14:22:11;24.15;;;13.90;;